sensor_id;sensor_type;location;lat;lon;timestamp;P1;durP1;ratioP1;P2;durP2;ratioP2
151;SDS011;68;48.792;9.164;2023-05-10T00:01:19;12.30;;;5.85;;
151;SDS011;68;48.792;9.164;2023-05-10T00:03:46;18.85;;;5.55;;
151;SDS011;68;48.792;9.164;2023-05-10T00:06:13;26.15;;;5.60;;
151;SDS011;68;48.792;9.164;2023-05-10T00:08:39;12.82;;;5.43;;
151;SDS011;68;48.792;9.164;2023-05-10T00:11:06;11.77;;;5.30;;
151;SDS011;68;48.792;9.164;2023-05-10T00:13:33;13.52;;;5.68;;
151;SDS011;68;48.792;9.164;2023-05-10T00:16:01;10.73;;;4.75;;
151;SDS011;68;48.792;9.164;2023-05-10T00:18:28;11.63;;;4.70;;
151;SDS011;68;48.792;9.164;2023-05-10T00:20:55;11.05;;;4.78;;
151;SDS011;68;48.792;9.164;2023-05-10T00:23:21;10.57;;;4.10;;
151;SDS011;68;48.792;9.164;2023-05-10T00:25:48;10.68;;;4.78;;
151;SDS011;68;48.792;9.164;2023-05-10T00:28:15;10.65;;;4.78;;
151;SDS011;68;48.792;9.164;2023-05-10T00:30:41;10.45;;;4.00;;
151;SDS011;68;48.792;9.164;2023-05-10T00:33:10;10.68;;;4.28;;
151;SDS011;68;48.792;9.164;2023-05-10T00:35:37;9.95;;;4.00;;
151;SDS011;68;48.792;9.164;2023-05-10T00:38:04;10.32;;;3.88;;
151;SDS011;68;48.792;9.164;2023-05-10T00:40:30;11.25;;;4.40;;
151;SDS011;68;48.792;9.164;2023-05-10T00:42:57;12.95;;;4.05;;
151;SDS011;68;48.792;9.164;2023-05-10T00:45:25;9.80;;;4.10;;
151;SDS011;68;48.792;9.164;2023-05-10T00:47:52;13.63;;;5.13;;
151;SDS011;68;48.792;9.164;2023-05-10T00:50:21;12.77;;;5.53;;
151;SDS011;68;48.792;9.164;2023-05-10T00:52:48;13.45;;;4.20;;
151;SDS011;68;48.792;9.164;2023-05-10T00:55:15;9.75;;;3.50;;
151;SDS011;68;48.792;9.164;2023-05-10T00:57:42;10.77;;;4.65;;
151;SDS011;68;48.792;9.164;2023-05-10T01:00:09;10.95;;;4.45;;
151;SDS011;68;48.792;9.164;2023-05-10T01:02:42;13.20;;;4.65;;
151;SDS011;68;48.792;9.164;2023-05-10T01:05:10;10.25;;;4.15;;
151;SDS011;68;48.792;9.164;2023-05-10T01:07:38;13.10;;;5.53;;
151;SDS011;68;48.792;9.164;2023-05-10T01:10:06;10.98;;;5.50;;
151;SDS011;68;48.792;9.164;2023-05-10T01:12:34;11.35;;;5.35;;
151;SDS011;68;48.792;9.164;2023-05-10T01:15:03;10.70;;;4.85;;
151;SDS011;68;48.792;9.164;2023-05-10T01:17:31;12.43;;;5.20;;
151;SDS011;68;48.792;9.164;2023-05-10T01:19:59;9.70;;;4.78;;
151;SDS011;68;48.792;9.164;2023-05-10T01:22:31;11.48;;;4.50;;
151;SDS011;68;48.792;9.164;2023-05-10T01:25:40;10.48;;;4.72;;
151;SDS011;68;48.792;9.164;2023-05-10T01:28:38;10.45;;;4.30;;
151;SDS011;68;48.792;9.164;2023-05-10T01:31:31;12.05;;;4.78;;
151;SDS011;68;48.792;9.164;2023-05-10T01:34:11;11.82;;;6.13;;
151;SDS011;68;48.792;9.164;2023-05-10T01:36:43;10.48;;;4.00;;
151;SDS011;68;48.792;9.164;2023-05-10T01:39:15;11.20;;;4.15;;
151;SDS011;68;48.792;9.164;2023-05-10T01:41:48;11.60;;;5.15;;
151;SDS011;68;48.792;9.164;2023-05-10T01:44:20;13.02;;;5.03;;
151;SDS011;68;48.792;9.164;2023-05-10T01:46:57;10.43;;;4.75;;
151;SDS011;68;48.792;9.164;2023-05-10T01:49:31;14.95;;;5.05;;
151;SDS011;68;48.792;9.164;2023-05-10T01:52:03;10.80;;;4.43;;
151;SDS011;68;48.792;9.164;2023-05-10T01:54:33;10.68;;;5.25;;
151;SDS011;68;48.792;9.164;2023-05-10T01:57:05;15.35;;;5.13;;
151;SDS011;68;48.792;9.164;2023-05-10T01:59:35;18.77;;;4.85;;
151;SDS011;68;48.792;9.164;2023-05-10T02:02:05;10.48;;;4.43;;
151;SDS011;68;48.792;9.164;2023-05-10T02:04:38;14.20;;;5.20;;
151;SDS011;68;48.792;9.164;2023-05-10T02:07:06;15.60;;;4.32;;
151;SDS011;68;48.792;9.164;2023-05-10T02:09:34;11.95;;;4.90;;
151;SDS011;68;48.792;9.164;2023-05-10T02:12:02;10.27;;;4.43;;
151;SDS011;68;48.792;9.164;2023-05-10T02:14:32;12.35;;;4.53;;
151;SDS011;68;48.792;9.164;2023-05-10T02:17:01;11.75;;;4.75;;
151;SDS011;68;48.792;9.164;2023-05-10T02:19:29;11.70;;;4.60;;
151;SDS011;68;48.792;9.164;2023-05-10T02:21:59;11.63;;;5.28;;
151;SDS011;68;48.792;9.164;2023-05-10T02:24:27;10.43;;;4.32;;
151;SDS011;68;48.792;9.164;2023-05-10T02:26:55;11.25;;;3.80;;
151;SDS011;68;48.792;9.164;2023-05-10T02:29:23;11.00;;;4.03;;
151;SDS011;68;48.792;9.164;2023-05-10T02:31:52;10.45;;;3.92;;
151;SDS011;68;48.792;9.164;2023-05-10T02:34:21;12.30;;;3.88;;
151;SDS011;68;48.792;9.164;2023-05-10T02:36:49;10.23;;;3.55;;
151;SDS011;68;48.792;9.164;2023-05-10T02:39:19;10.55;;;4.13;;
151;SDS011;68;48.792;9.164;2023-05-10T02:41:47;9.65;;;4.63;;
151;SDS011;68;48.792;9.164;2023-05-10T02:44:17;11.30;;;5.05;;
151;SDS011;68;48.792;9.164;2023-05-10T02:46:45;16.10;;;4.85;;
151;SDS011;68;48.792;9.164;2023-05-10T02:49:12;11.00;;;5.30;;
151;SDS011;68;48.792;9.164;2023-05-10T02:51:42;10.80;;;4.85;;
151;SDS011;68;48.792;9.164;2023-05-10T02:54:15;10.77;;;4.95;;
151;SDS011;68;48.792;9.164;2023-05-10T02:56:50;9.98;;;4.22;;
151;SDS011;68;48.792;9.164;2023-05-10T02:59:20;10.60;;;4.57;;
151;SDS011;68;48.792;9.164;2023-05-10T03:01:46;10.98;;;4.82;;
151;SDS011;68;48.792;9.164;2023-05-10T03:04:13;9.85;;;4.13;;
151;SDS011;68;48.792;9.164;2023-05-10T03:06:40;11.18;;;4.20;;
151;SDS011;68;48.792;9.164;2023-05-10T03:09:07;11.55;;;4.28;;
151;SDS011;68;48.792;9.164;2023-05-10T03:11:39;11.50;;;4.80;;
151;SDS011;68;48.792;9.164;2023-05-10T03:14:23;13.20;;;4.72;;
151;SDS011;68;48.792;9.164;2023-05-10T03:16:59;11.68;;;5.18;;
151;SDS011;68;48.792;9.164;2023-05-10T03:19:32;10.77;;;5.13;;
151;SDS011;68;48.792;9.164;2023-05-10T03:22:07;11.55;;;4.43;;
151;SDS011;68;48.792;9.164;2023-05-10T03:24:36;12.85;;;5.20;;
151;SDS011;68;48.792;9.164;2023-05-10T03:27:08;10.15;;;4.85;;
151;SDS011;68;48.792;9.164;2023-05-10T03:29:36;11.30;;;5.10;;
151;SDS011;68;48.792;9.164;2023-05-10T03:32:04;11.65;;;5.32;;
151;SDS011;68;48.792;9.164;2023-05-10T03:34:30;10.82;;;4.30;;
151;SDS011;68;48.792;9.164;2023-05-10T03:36:57;12.05;;;5.22;;
151;SDS011;68;48.792;9.164;2023-05-10T03:39:24;10.85;;;4.90;;
151;SDS011;68;48.792;9.164;2023-05-10T03:41:51;10.70;;;4.70;;
151;SDS011;68;48.792;9.164;2023-05-10T03:44:19;10.98;;;4.95;;
151;SDS011;68;48.792;9.164;2023-05-10T03:46:46;11.90;;;5.35;;
151;SDS011;68;48.792;9.164;2023-05-10T03:49:12;10.90;;;5.28;;
151;SDS011;68;48.792;9.164;2023-05-10T03:51:39;12.65;;;5.60;;
151;SDS011;68;48.792;9.164;2023-05-10T03:54:06;10.43;;;4.88;;
151;SDS011;68;48.792;9.164;2023-05-10T03:56:33;22.00;;;5.53;;
151;SDS011;68;48.792;9.164;2023-05-10T03:58:59;11.50;;;5.60;;
151;SDS011;68;48.792;9.164;2023-05-10T04:01:27;13.23;;;5.15;;
151;SDS011;68;48.792;9.164;2023-05-10T04:03:54;11.63;;;5.10;;
151;SDS011;68;48.792;9.164;2023-05-10T04:06:21;10.68;;;5.90;;
151;SDS011;68;48.792;9.164;2023-05-10T04:08:48;11.05;;;5.07;;
151;SDS011;68;48.792;9.164;2023-05-10T04:11:14;10.82;;;5.35;;
151;SDS011;68;48.792;9.164;2023-05-10T04:13:41;13.18;;;5.75;;
151;SDS011;68;48.792;9.164;2023-05-10T04:16:09;11.48;;;5.03;;
151;SDS011;68;48.792;9.164;2023-05-10T04:18:37;12.93;;;4.70;;
151;SDS011;68;48.792;9.164;2023-05-10T04:21:04;16.13;;;5.15;;
151;SDS011;68;48.792;9.164;2023-05-10T04:23:36;10.52;;;6.00;;
151;SDS011;68;48.792;9.164;2023-05-10T04:26:03;13.15;;;6.03;;
151;SDS011;68;48.792;9.164;2023-05-10T04:28:30;13.18;;;6.22;;
151;SDS011;68;48.792;9.164;2023-05-10T04:31:00;13.23;;;5.97;;
151;SDS011;68;48.792;9.164;2023-05-10T04:33:27;12.07;;;5.85;;
151;SDS011;68;48.792;9.164;2023-05-10T04:35:56;12.45;;;6.00;;
151;SDS011;68;48.792;9.164;2023-05-10T04:38:23;12.38;;;6.57;;
151;SDS011;68;48.792;9.164;2023-05-10T04:40:50;12.43;;;6.30;;
151;SDS011;68;48.792;9.164;2023-05-10T04:43:16;13.93;;;5.30;;
151;SDS011;68;48.792;9.164;2023-05-10T04:45:43;12.60;;;5.30;;
151;SDS011;68;48.792;9.164;2023-05-10T04:48:10;12.15;;;3.95;;
151;SDS011;68;48.792;9.164;2023-05-10T04:50:37;10.73;;;5.60;;
151;SDS011;68;48.792;9.164;2023-05-10T04:53:06;12.05;;;5.25;;
151;SDS011;68;48.792;9.164;2023-05-10T04:55:33;11.10;;;4.80;;
151;SDS011;68;48.792;9.164;2023-05-10T04:57:59;14.55;;;5.30;;
151;SDS011;68;48.792;9.164;2023-05-10T05:00:26;11.88;;;5.57;;
151;SDS011;68;48.792;9.164;2023-05-10T05:02:53;12.90;;;6.00;;
151;SDS011;68;48.792;9.164;2023-05-10T05:05:20;12.40;;;5.43;;
151;SDS011;68;48.792;9.164;2023-05-10T05:07:46;13.38;;;5.45;;
151;SDS011;68;48.792;9.164;2023-05-10T05:10:14;11.30;;;5.30;;
151;SDS011;68;48.792;9.164;2023-05-10T05:12:41;12.65;;;5.40;;
151;SDS011;68;48.792;9.164;2023-05-10T05:15:08;13.02;;;4.85;;
151;SDS011;68;48.792;9.164;2023-05-10T05:17:36;15.18;;;5.75;;
151;SDS011;68;48.792;9.164;2023-05-10T05:20:03;11.80;;;4.95;;
151;SDS011;68;48.792;9.164;2023-05-10T05:22:30;12.98;;;4.85;;
151;SDS011;68;48.792;9.164;2023-05-10T05:24:57;16.85;;;5.60;;
151;SDS011;68;48.792;9.164;2023-05-10T05:27:26;11.82;;;4.95;;
151;SDS011;68;48.792;9.164;2023-05-10T05:29:52;12.30;;;5.30;;
151;SDS011;68;48.792;9.164;2023-05-10T05:32:19;11.23;;;5.32;;
151;SDS011;68;48.792;9.164;2023-05-10T05:34:46;17.38;;;5.57;;
151;SDS011;68;48.792;9.164;2023-05-10T05:37:13;17.20;;;6.10;;
151;SDS011;68;48.792;9.164;2023-05-10T05:39:40;12.18;;;5.60;;
151;SDS011;68;48.792;9.164;2023-05-10T05:42:07;14.60;;;5.95;;
151;SDS011;68;48.792;9.164;2023-05-10T05:44:36;16.20;;;6.57;;
151;SDS011;68;48.792;9.164;2023-05-10T05:47:03;14.35;;;5.32;;
151;SDS011;68;48.792;9.164;2023-05-10T05:49:30;13.55;;;5.78;;
151;SDS011;68;48.792;9.164;2023-05-10T05:51:58;12.30;;;5.90;;
151;SDS011;68;48.792;9.164;2023-05-10T05:54:25;11.85;;;5.88;;
151;SDS011;68;48.792;9.164;2023-05-10T05:56:53;14.82;;;6.00;;
151;SDS011;68;48.792;9.164;2023-05-10T05:59:20;12.20;;;5.70;;
151;SDS011;68;48.792;9.164;2023-05-10T06:01:48;15.10;;;7.32;;
151;SDS011;68;48.792;9.164;2023-05-10T06:04:16;12.48;;;5.65;;
151;SDS011;68;48.792;9.164;2023-05-10T06:06:43;12.35;;;6.25;;
151;SDS011;68;48.792;9.164;2023-05-10T06:09:10;13.80;;;5.18;;
151;SDS011;68;48.792;9.164;2023-05-10T06:11:37;12.40;;;5.32;;
151;SDS011;68;48.792;9.164;2023-05-10T06:14:04;11.57;;;5.32;;
151;SDS011;68;48.792;9.164;2023-05-10T06:16:32;13.25;;;6.10;;
151;SDS011;68;48.792;9.164;2023-05-10T06:19:00;12.90;;;5.45;;
151;SDS011;68;48.792;9.164;2023-05-10T06:21:27;11.68;;;5.45;;
151;SDS011;68;48.792;9.164;2023-05-10T06:23:54;15.15;;;6.57;;
151;SDS011;68;48.792;9.164;2023-05-10T06:26:20;12.68;;;5.85;;
151;SDS011;68;48.792;9.164;2023-05-10T06:28:47;14.52;;;5.85;;
151;SDS011;68;48.792;9.164;2023-05-10T06:31:14;12.75;;;5.65;;
151;SDS011;68;48.792;9.164;2023-05-10T06:33:41;12.32;;;5.53;;
151;SDS011;68;48.792;9.164;2023-05-10T06:36:09;28.02;;;6.03;;
151;SDS011;68;48.792;9.164;2023-05-10T06:38:36;14.07;;;5.65;;
151;SDS011;68;48.792;9.164;2023-05-10T06:41:02;12.98;;;6.00;;
151;SDS011;68;48.792;9.164;2023-05-10T06:43:29;14.50;;;5.50;;
151;SDS011;68;48.792;9.164;2023-05-10T06:45:56;12.18;;;5.80;;
151;SDS011;68;48.792;9.164;2023-05-10T06:48:23;13.23;;;6.65;;
151;SDS011;68;48.792;9.164;2023-05-10T06:50:50;12.73;;;6.07;;
151;SDS011;68;48.792;9.164;2023-05-10T06:53:18;13.00;;;6.60;;
151;SDS011;68;48.792;9.164;2023-05-10T06:55:45;13.30;;;6.05;;
151;SDS011;68;48.792;9.164;2023-05-10T06:58:12;11.88;;;5.80;;
151;SDS011;68;48.792;9.164;2023-05-10T07:00:38;16.35;;;6.22;;
151;SDS011;68;48.792;9.164;2023-05-10T07:03:12;12.20;;;5.55;;
151;SDS011;68;48.792;9.164;2023-05-10T07:05:39;14.02;;;5.30;;
151;SDS011;68;48.792;9.164;2023-05-10T07:08:06;12.57;;;5.20;;
151;SDS011;68;48.792;9.164;2023-05-10T07:10:34;12.70;;;5.75;;
151;SDS011;68;48.792;9.164;2023-05-10T07:13:01;12.80;;;5.68;;
151;SDS011;68;48.792;9.164;2023-05-10T07:15:28;12.10;;;6.07;;
151;SDS011;68;48.792;9.164;2023-05-10T07:17:55;15.85;;;5.40;;
151;SDS011;68;48.792;9.164;2023-05-10T07:20:21;15.23;;;5.95;;
151;SDS011;68;48.792;9.164;2023-05-10T07:22:48;13.90;;;5.63;;
151;SDS011;68;48.792;9.164;2023-05-10T07:25:15;12.27;;;5.45;;
151;SDS011;68;48.792;9.164;2023-05-10T07:27:43;13.73;;;6.05;;
151;SDS011;68;48.792;9.164;2023-05-10T07:30:10;13.50;;;5.70;;
151;SDS011;68;48.792;9.164;2023-05-10T07:32:38;13.75;;;5.72;;
151;SDS011;68;48.792;9.164;2023-05-10T07:35:07;12.90;;;5.45;;
151;SDS011;68;48.792;9.164;2023-05-10T07:37:34;14.57;;;5.53;;
151;SDS011;68;48.792;9.164;2023-05-10T07:40:01;12.63;;;5.00;;
151;SDS011;68;48.792;9.164;2023-05-10T07:42:28;10.18;;;4.85;;
151;SDS011;68;48.792;9.164;2023-05-10T07:44:56;13.77;;;5.05;;
151;SDS011;68;48.792;9.164;2023-05-10T07:47:22;12.82;;;5.10;;
151;SDS011;68;48.792;9.164;2023-05-10T07:49:49;12.85;;;5.05;;
151;SDS011;68;48.792;9.164;2023-05-10T07:52:16;11.88;;;4.18;;
151;SDS011;68;48.792;9.164;2023-05-10T07:54:43;10.93;;;4.38;;
151;SDS011;68;48.792;9.164;2023-05-10T07:57:10;11.18;;;4.72;;
151;SDS011;68;48.792;9.164;2023-05-10T07:59:39;19.92;;;5.20;;
151;SDS011;68;48.792;9.164;2023-05-10T08:02:07;12.70;;;4.40;;
151;SDS011;68;48.792;9.164;2023-05-10T08:04:34;11.52;;;4.47;;
151;SDS011;68;48.792;9.164;2023-05-10T08:07:01;14.20;;;4.78;;
151;SDS011;68;48.792;9.164;2023-05-10T08:09:27;10.90;;;3.72;;
151;SDS011;68;48.792;9.164;2023-05-10T08:11:54;13.73;;;3.90;;
151;SDS011;68;48.792;9.164;2023-05-10T08:14:21;10.85;;;4.03;;
151;SDS011;68;48.792;9.164;2023-05-10T08:16:48;11.57;;;4.18;;
151;SDS011;68;48.792;9.164;2023-05-10T08:19:16;13.32;;;4.60;;
151;SDS011;68;48.792;9.164;2023-05-10T08:21:44;11.73;;;4.70;;
151;SDS011;68;48.792;9.164;2023-05-10T08:24:11;12.50;;;4.05;;
151;SDS011;68;48.792;9.164;2023-05-10T08:26:38;12.30;;;4.60;;
151;SDS011;68;48.792;9.164;2023-05-10T08:29:04;11.07;;;4.18;;
151;SDS011;68;48.792;9.164;2023-05-10T08:31:31;16.35;;;4.35;;
151;SDS011;68;48.792;9.164;2023-05-10T08:33:58;11.52;;;3.85;;
151;SDS011;68;48.792;9.164;2023-05-10T08:36:26;10.88;;;4.25;;
151;SDS011;68;48.792;9.164;2023-05-10T08:38:53;11.35;;;4.10;;
151;SDS011;68;48.792;9.164;2023-05-10T08:41:20;16.27;;;3.80;;
151;SDS011;68;48.792;9.164;2023-05-10T08:43:49;10.48;;;3.85;;
151;SDS011;68;48.792;9.164;2023-05-10T08:46:17;13.43;;;3.80;;
151;SDS011;68;48.792;9.164;2023-05-10T08:48:45;12.15;;;3.90;;
151;SDS011;68;48.792;9.164;2023-05-10T08:51:13;12.05;;;3.85;;
151;SDS011;68;48.792;9.164;2023-05-10T08:53:42;13.35;;;3.53;;
151;SDS011;68;48.792;9.164;2023-05-10T08:56:10;10.85;;;3.78;;
151;SDS011;68;48.792;9.164;2023-05-10T08:58:37;11.20;;;4.45;;
151;SDS011;68;48.792;9.164;2023-05-10T09:01:04;10.65;;;3.75;;
151;SDS011;68;48.792;9.164;2023-05-10T09:03:31;12.57;;;3.45;;
151;SDS011;68;48.792;9.164;2023-05-10T09:05:58;10.55;;;3.55;;
151;SDS011;68;48.792;9.164;2023-05-10T09:08:25;14.13;;;3.80;;
151;SDS011;68;48.792;9.164;2023-05-10T09:10:54;10.35;;;3.45;;
151;SDS011;68;48.792;9.164;2023-05-10T09:13:21;10.93;;;3.50;;
151;SDS011;68;48.792;9.164;2023-05-10T09:15:49;10.53;;;3.20;;
151;SDS011;68;48.792;9.164;2023-05-10T09:18:16;10.43;;;3.10;;
151;SDS011;68;48.792;9.164;2023-05-10T09:20:43;11.13;;;3.67;;
151;SDS011;68;48.792;9.164;2023-05-10T09:23:10;11.05;;;3.35;;
151;SDS011;68;48.792;9.164;2023-05-10T09:25:37;10.20;;;3.42;;
151;SDS011;68;48.792;9.164;2023-05-10T09:28:07;10.32;;;3.15;;
151;SDS011;68;48.792;9.164;2023-05-10T09:30:34;11.57;;;3.30;;
151;SDS011;68;48.792;9.164;2023-05-10T09:33:01;10.10;;;3.20;;
151;SDS011;68;48.792;9.164;2023-05-10T09:35:30;10.63;;;3.35;;
151;SDS011;68;48.792;9.164;2023-05-10T09:37:59;9.80;;;3.00;;
151;SDS011;68;48.792;9.164;2023-05-10T09:40:27;10.60;;;3.50;;
151;SDS011;68;48.792;9.164;2023-05-10T09:42:56;10.18;;;3.25;;
151;SDS011;68;48.792;9.164;2023-05-10T09:45:25;9.90;;;3.05;;
151;SDS011;68;48.792;9.164;2023-05-10T09:47:53;12.57;;;3.25;;
151;SDS011;68;48.792;9.164;2023-05-10T09:50:21;11.43;;;3.25;;
151;SDS011;68;48.792;9.164;2023-05-10T09:52:48;11.13;;;3.30;;
151;SDS011;68;48.792;9.164;2023-05-10T09:55:17;10.38;;;3.20;;
151;SDS011;68;48.792;9.164;2023-05-10T09:57:45;11.00;;;2.90;;
151;SDS011;68;48.792;9.164;2023-05-10T10:00:16;10.57;;;3.00;;
151;SDS011;68;48.792;9.164;2023-05-10T10:02:46;11.03;;;2.90;;
151;SDS011;68;48.792;9.164;2023-05-10T10:05:14;10.77;;;3.15;;
151;SDS011;68;48.792;9.164;2023-05-10T10:07:41;11.97;;;3.50;;
151;SDS011;68;48.792;9.164;2023-05-10T10:10:08;10.40;;;3.23;;
151;SDS011;68;48.792;9.164;2023-05-10T10:12:37;10.87;;;3.47;;
151;SDS011;68;48.792;9.164;2023-05-10T10:15:06;11.50;;;3.80;;
151;SDS011;68;48.792;9.164;2023-05-10T10:17:34;12.18;;;3.38;;
151;SDS011;68;48.792;9.164;2023-05-10T10:20:04;10.15;;;3.30;;
151;SDS011;68;48.792;9.164;2023-05-10T10:22:32;10.30;;;3.20;;
151;SDS011;68;48.792;9.164;2023-05-10T10:24:59;13.25;;;3.15;;
151;SDS011;68;48.792;9.164;2023-05-10T10:27:28;12.75;;;3.42;;
151;SDS011;68;48.792;9.164;2023-05-10T10:30:08;11.95;;;3.40;;
151;SDS011;68;48.792;9.164;2023-05-10T10:32:47;10.95;;;3.45;;
151;SDS011;68;48.792;9.164;2023-05-10T10:35:34;10.43;;;3.05;;
151;SDS011;68;48.792;9.164;2023-05-10T10:38:01;12.03;;;3.20;;
151;SDS011;68;48.792;9.164;2023-05-10T10:40:29;13.07;;;3.30;;
151;SDS011;68;48.792;9.164;2023-05-10T10:42:57;10.63;;;3.22;;
151;SDS011;68;48.792;9.164;2023-05-10T10:45:24;10.70;;;3.37;;
151;SDS011;68;48.792;9.164;2023-05-10T10:50:47;12.65;;;3.60;;
151;SDS011;68;48.792;9.164;2023-05-10T10:53:21;11.02;;;3.40;;
151;SDS011;68;48.792;9.164;2023-05-10T10:55:48;11.10;;;3.67;;
151;SDS011;68;48.792;9.164;2023-05-10T10:58:28;10.30;;;3.30;;
151;SDS011;68;48.792;9.164;2023-05-10T11:01:08;11.90;;;3.10;;
151;SDS011;68;48.792;9.164;2023-05-10T11:03:40;9.77;;;2.80;;
151;SDS011;68;48.792;9.164;2023-05-10T11:06:09;10.30;;;2.97;;
151;SDS011;68;48.792;9.164;2023-05-10T11:08:41;10.67;;;2.80;;
151;SDS011;68;48.792;9.164;2023-05-10T11:11:09;10.48;;;2.83;;
151;SDS011;68;48.792;9.164;2023-05-10T11:13:41;12.17;;;2.77;;
151;SDS011;68;48.792;9.164;2023-05-10T11:16:15;12.63;;;3.28;;
151;SDS011;68;48.792;9.164;2023-05-10T11:18:53;13.35;;;3.25;;
151;SDS011;68;48.792;9.164;2023-05-10T11:21:24;12.50;;;3.33;;
151;SDS011;68;48.792;9.164;2023-05-10T11:23:52;13.38;;;4.20;;
151;SDS011;68;48.792;9.164;2023-05-10T11:26:21;14.35;;;3.55;;
151;SDS011;68;48.792;9.164;2023-05-10T11:28:50;10.50;;;3.15;;
151;SDS011;68;48.792;9.164;2023-05-10T11:31:19;10.15;;;2.90;;
151;SDS011;68;48.792;9.164;2023-05-10T11:33:47;12.10;;;3.08;;
151;SDS011;68;48.792;9.164;2023-05-10T11:36:15;10.93;;;3.17;;
151;SDS011;68;48.792;9.164;2023-05-10T11:38:45;10.05;;;2.80;;
151;SDS011;68;48.792;9.164;2023-05-10T11:41:13;10.47;;;2.67;;
151;SDS011;68;48.792;9.164;2023-05-10T11:43:41;11.13;;;2.90;;
151;SDS011;68;48.792;9.164;2023-05-10T11:46:09;10.40;;;3.10;;
151;SDS011;68;48.792;9.164;2023-05-10T11:48:38;13.00;;;3.17;;
151;SDS011;68;48.792;9.164;2023-05-10T11:51:06;15.07;;;3.33;;
151;SDS011;68;48.792;9.164;2023-05-10T11:53:33;13.63;;;3.10;;
151;SDS011;68;48.792;9.164;2023-05-10T11:56:04;11.20;;;3.47;;
151;SDS011;68;48.792;9.164;2023-05-10T11:58:32;12.00;;;3.25;;
151;SDS011;68;48.792;9.164;2023-05-10T12:00:59;11.17;;;3.40;;
151;SDS011;68;48.792;9.164;2023-05-10T12:03:26;12.77;;;3.40;;
151;SDS011;68;48.792;9.164;2023-05-10T12:05:54;17.77;;;4.00;;
151;SDS011;68;48.792;9.164;2023-05-10T12:08:21;11.75;;;3.40;;
151;SDS011;68;48.792;9.164;2023-05-10T12:10:49;12.65;;;3.45;;
151;SDS011;68;48.792;9.164;2023-05-10T12:13:19;12.48;;;3.30;;
151;SDS011;68;48.792;9.164;2023-05-10T12:15:46;12.75;;;3.85;;
151;SDS011;68;48.792;9.164;2023-05-10T12:18:13;12.93;;;3.42;;
151;SDS011;68;48.792;9.164;2023-05-10T12:20:40;11.20;;;3.60;;
151;SDS011;68;48.792;9.164;2023-05-10T12:23:08;11.90;;;3.80;;
151;SDS011;68;48.792;9.164;2023-05-10T12:25:36;16.92;;;4.00;;
151;SDS011;68;48.792;9.164;2023-05-10T12:28:04;12.17;;;3.40;;
151;SDS011;68;48.792;9.164;2023-05-10T12:30:33;12.02;;;3.50;;
151;SDS011;68;48.792;9.164;2023-05-10T12:33:02;11.65;;;3.60;;
151;SDS011;68;48.792;9.164;2023-05-10T12:35:33;16.73;;;3.63;;
151;SDS011;68;48.792;9.164;2023-05-10T12:40:54;13.00;;;3.37;;
151;SDS011;68;48.792;9.164;2023-05-10T12:43:21;11.97;;;3.07;;
151;SDS011;68;48.792;9.164;2023-05-10T12:45:49;13.33;;;3.30;;
151;SDS011;68;48.792;9.164;2023-05-10T12:48:16;11.17;;;3.13;;
151;SDS011;68;48.792;9.164;2023-05-10T12:50:43;13.48;;;3.40;;
151;SDS011;68;48.792;9.164;2023-05-10T12:53:10;13.17;;;3.47;;
151;SDS011;68;48.792;9.164;2023-05-10T12:55:38;13.37;;;3.20;;
151;SDS011;68;48.792;9.164;2023-05-10T12:58:05;11.93;;;3.80;;
151;SDS011;68;48.792;9.164;2023-05-10T13:00:32;10.67;;;3.10;;
151;SDS011;68;48.792;9.164;2023-05-10T13:03:00;12.83;;;3.80;;
151;SDS011;68;48.792;9.164;2023-05-10T13:05:27;14.00;;;3.43;;
151;SDS011;68;48.792;9.164;2023-05-10T13:07:54;11.55;;;3.75;;
151;SDS011;68;48.792;9.164;2023-05-10T13:10:21;13.27;;;3.63;;
151;SDS011;68;48.792;9.164;2023-05-10T13:12:48;15.23;;;3.75;;
151;SDS011;68;48.792;9.164;2023-05-10T13:15:15;11.00;;;3.17;;
151;SDS011;68;48.792;9.164;2023-05-10T13:17:42;13.35;;;3.90;;
151;SDS011;68;48.792;9.164;2023-05-10T13:20:11;11.02;;;3.28;;
151;SDS011;68;48.792;9.164;2023-05-10T13:22:38;13.73;;;4.57;;
151;SDS011;68;48.792;9.164;2023-05-10T13:25:05;13.48;;;4.30;;
151;SDS011;68;48.792;9.164;2023-05-10T13:27:32;13.17;;;4.00;;
151;SDS011;68;48.792;9.164;2023-05-10T13:29:59;12.18;;;3.63;;
151;SDS011;68;48.792;9.164;2023-05-10T13:32:26;14.30;;;3.63;;
151;SDS011;68;48.792;9.164;2023-05-10T13:34:53;10.60;;;3.20;;
151;SDS011;68;48.792;9.164;2023-05-10T13:37:21;12.10;;;3.73;;
151;SDS011;68;48.792;9.164;2023-05-10T13:39:48;12.43;;;3.40;;
151;SDS011;68;48.792;9.164;2023-05-10T13:42:15;10.50;;;3.33;;
151;SDS011;68;48.792;9.164;2023-05-10T13:44:42;10.50;;;3.30;;
151;SDS011;68;48.792;9.164;2023-05-10T13:47:08;11.73;;;3.70;;
151;SDS011;68;48.792;9.164;2023-05-10T13:49:36;12.93;;;3.93;;
151;SDS011;68;48.792;9.164;2023-05-10T13:52:03;13.13;;;3.50;;
151;SDS011;68;48.792;9.164;2023-05-10T13:54:33;14.13;;;3.50;;
151;SDS011;68;48.792;9.164;2023-05-10T13:57:00;12.20;;;3.30;;
151;SDS011;68;48.792;9.164;2023-05-10T13:59:28;16.03;;;3.67;;
151;SDS011;68;48.792;9.164;2023-05-10T14:01:56;11.70;;;3.80;;
151;SDS011;68;48.792;9.164;2023-05-10T14:04:23;12.67;;;3.77;;
151;SDS011;68;48.792;9.164;2023-05-10T14:06:50;12.93;;;3.90;;
151;SDS011;68;48.792;9.164;2023-05-10T14:09:17;11.43;;;3.13;;
151;SDS011;68;48.792;9.164;2023-05-10T14:11:46;15.77;;;3.80;;
151;SDS011;68;48.792;9.164;2023-05-10T14:14:12;12.93;;;3.60;;
151;SDS011;68;48.792;9.164;2023-05-10T14:16:41;14.73;;;3.60;;
151;SDS011;68;48.792;9.164;2023-05-10T14:19:08;12.17;;;3.30;;
151;SDS011;68;48.792;9.164;2023-05-10T14:21:35;12.80;;;3.10;;
151;SDS011;68;48.792;9.164;2023-05-10T14:24:02;13.53;;;3.23;;
151;SDS011;68;48.792;9.164;2023-05-10T14:26:30;13.40;;;4.10;;
151;SDS011;68;48.792;9.164;2023-05-10T14:28:58;11.10;;;3.00;;
151;SDS011;68;48.792;9.164;2023-05-10T14:31:25;14.53;;;3.30;;
151;SDS011;68;48.792;9.164;2023-05-10T14:33:52;12.03;;;2.90;;
151;SDS011;68;48.792;9.164;2023-05-10T14:36:19;12.40;;;3.10;;
151;SDS011;68;48.792;9.164;2023-05-10T14:38:45;18.43;;;3.07;;
151;SDS011;68;48.792;9.164;2023-05-10T14:41:12;12.00;;;3.30;;
151;SDS011;68;48.792;9.164;2023-05-10T14:43:40;12.40;;;3.40;;
151;SDS011;68;48.792;9.164;2023-05-10T14:46:08;11.43;;;3.30;;
151;SDS011;68;48.792;9.164;2023-05-10T14:48:35;11.50;;;3.60;;
151;SDS011;68;48.792;9.164;2023-05-10T14:51:01;15.98;;;3.85;;
151;SDS011;68;48.792;9.164;2023-05-10T14:53:28;18.73;;;3.70;;
151;SDS011;68;48.792;9.164;2023-05-10T14:55:55;16.47;;;3.70;;
151;SDS011;68;48.792;9.164;2023-05-10T14:58:22;14.27;;;3.30;;
151;SDS011;68;48.792;9.164;2023-05-10T15:00:49;12.80;;;3.40;;
151;SDS011;68;48.792;9.164;2023-05-10T15:03:17;12.13;;;3.67;;
151;SDS011;68;48.792;9.164;2023-05-10T15:05:44;12.32;;;3.03;;
151;SDS011;68;48.792;9.164;2023-05-10T15:08:11;12.40;;;3.20;;
151;SDS011;68;48.792;9.164;2023-05-10T15:10:37;13.80;;;3.20;;
151;SDS011;68;48.792;9.164;2023-05-10T15:13:04;12.63;;;3.40;;
151;SDS011;68;48.792;9.164;2023-05-10T15:15:31;11.70;;;2.93;;
151;SDS011;68;48.792;9.164;2023-05-10T15:17:58;11.50;;;3.23;;
151;SDS011;68;48.792;9.164;2023-05-10T15:20:26;11.87;;;3.23;;
151;SDS011;68;48.792;9.164;2023-05-10T15:22:53;11.60;;;3.77;;
151;SDS011;68;48.792;9.164;2023-05-10T15:25:19;11.70;;;3.40;;
151;SDS011;68;48.792;9.164;2023-05-10T15:27:47;11.50;;;3.23;;
151;SDS011;68;48.792;9.164;2023-05-10T15:30:14;13.93;;;3.30;;
151;SDS011;68;48.792;9.164;2023-05-10T15:32:41;11.37;;;3.33;;
151;SDS011;68;48.792;9.164;2023-05-10T15:35:07;16.37;;;3.00;;
151;SDS011;68;48.792;9.164;2023-05-10T15:37:36;31.77;;;3.33;;
151;SDS011;68;48.792;9.164;2023-05-10T15:40:03;11.40;;;3.30;;
151;SDS011;68;48.792;9.164;2023-05-10T15:42:31;10.98;;;3.30;;
151;SDS011;68;48.792;9.164;2023-05-10T15:44:58;10.87;;;3.27;;
151;SDS011;68;48.792;9.164;2023-05-10T15:47:25;12.03;;;3.30;;
151;SDS011;68;48.792;9.164;2023-05-10T15:49:52;11.27;;;2.97;;
151;SDS011;68;48.792;9.164;2023-05-10T15:52:19;16.83;;;2.90;;
151;SDS011;68;48.792;9.164;2023-05-10T15:54:49;12.07;;;3.40;;
151;SDS011;68;48.792;9.164;2023-05-10T15:57:16;11.60;;;2.87;;